Skip Navigation

Christman Field Latest Observations

Switch to english unitsOther observation timesWeekly graphs

Date Time
MST
Temp
°C
RH
%
DewPt
°C
Wind
m/s
Dir
°
Gust
m/s
Dir
°
Press
hPa
Solar
W/m^2
Prec
mm
2017-06-28 01:40 15.1 48.9 4.5 0.0 292 0.0 292 839.54 0.0 0.00
2017-06-28 01:35 14.7 48.6 3.9 0.0 292 0.0 293 839.54 0.1 0.00
2017-06-28 01:30 15.0 47.7 4.0 0.0 293 0.6 280 839.46 0.1 0.00
2017-06-28 01:25 15.1 46.3 3.7 0.8 280 1.9 327 839.40 0.1 0.00
2017-06-28 01:20 15.9 44.9 4.0 1.1 227 1.7 203 839.32 0.1 0.00
2017-06-28 01:15 15.5 45.0 3.7 0.9 248 1.6 227 839.28 0.0 0.00
2017-06-28 01:10 15.4 45.7 3.8 2.4 283 3.0 294 839.28 0.1 0.00
2017-06-28 01:05 16.3 43.0 3.7 2.0 297 3.3 313 839.26 0.1 0.00
2017-06-28 01:00 16.2 41.8 3.2 1.3 272 2.0 279 839.28 0.1 0.00
2017-06-28 00:55 16.9 42.5 4.1 1.5 269 2.8 345 839.33 0.1 0.00
2017-06-28 00:50 18.1 37.7 3.4 2.1 345 2.6 351 839.35 0.1 0.00
2017-06-28 00:45 17.7 37.2 2.9 1.4 1 2.5 335 839.37 0.1 0.00
2017-06-28 00:40 17.1 39.1 3.1 0.8 53 1.7 72 839.36 0.1 0.00
2017-06-28 00:35 17.0 40.1 3.4 1.7 155 2.5 155 839.32 0.1 0.00
2017-06-28 00:30 16.9 40.3 3.3 2.3 146 2.8 154 839.21 0.1 0.00
2017-06-28 00:25 17.0 40.6 3.5 0.8 139 2.1 126 839.03 0.1 0.00
2017-06-28 00:20 17.1 40.0 3.4 2.5 8 5.2 300 838.95 0.1 0.00
2017-06-28 00:15 16.9 40.3 3.3 3.1 341 4.0 323 838.91 0.1 0.00
2017-06-28 00:10 16.6 40.8 3.2 3.7 314 4.2 300 838.93 0.0 0.00
2017-06-28 00:05 17.0 40.7 3.6 4.3 303 5.1 291 838.81 0.1 0.00
2017-06-28 00:00 17.6 39.0 3.5 5.0 294 6.3 300 838.67 0.1 0.00
2017-06-27 23:55 17.7 37.8 3.1 5.5 307 6.5 318 838.58 0.1 0.00
2017-06-27 23:50 17.7 38.1 3.2 4.2 318 5.4 327 838.62 0.1 0.00
2017-06-27 23:45 18.0 37.8 3.5 4.7 317 7.1 329 838.63 0.1 0.00
2017-06-27 23:40 18.2 36.5 3.1 5.6 332 6.5 320 838.58 0.0 0.00
2017-06-27 23:35 17.9 35.9 2.6 5.7 332 7.3 332 838.48 0.0 0.00
2017-06-27 23:30 18.3 36.2 3.0 5.5 338 7.1 343 838.45 0.0 0.00
2017-06-27 23:25 18.6 34.0 2.4 6.1 346 7.1 339 838.45 0.0 0.00
2017-06-27 23:20 18.1 33.9 1.9 6.1 351 7.6 352 838.43 0.0 0.00
2017-06-27 23:15 18.1 35.6 2.6 6.2 349 8.2 354 838.32 0.0 0.00